sensor_id;sensor_type;location;lat;lon;timestamp;temperature;humidity
13960;DHT22;7052;51.050;3.716;2024-01-06T00:02:05;7.20;99.90
13960;DHT22;7052;51.050;3.716;2024-01-06T00:04:34;7.20;99.90
13960;DHT22;7052;51.050;3.716;2024-01-06T00:07:01;7.20;99.90
13960;DHT22;7052;51.050;3.716;2024-01-06T00:09:28;7.20;99.90
13960;DHT22;7052;51.050;3.716;2024-01-06T00:11:56;7.20;99.90
13960;DHT22;7052;51.050;3.716;2024-01-06T00:14:24;7.20;99.90
13960;DHT22;7052;51.050;3.716;2024-01-06T00:16:52;7.20;99.90
13960;DHT22;7052;51.050;3.716;2024-01-06T00:19:20;7.20;99.90
13960;DHT22;7052;51.050;3.716;2024-01-06T00:21:48;7.20;99.90
13960;DHT22;7052;51.050;3.716;2024-01-06T00:24:15;7.20;99.90
13960;DHT22;7052;51.050;3.716;2024-01-06T00:26:43;7.20;99.90
13960;DHT22;7052;51.050;3.716;2024-01-06T00:29:12;7.20;99.90
13960;DHT22;7052;51.050;3.716;2024-01-06T00:31:38;7.20;99.90
13960;DHT22;7052;51.050;3.716;2024-01-06T00:34:06;7.20;99.90
13960;DHT22;7052;51.050;3.716;2024-01-06T00:36:33;7.20;99.90
13960;DHT22;7052;51.050;3.716;2024-01-06T00:39:02;7.20;99.90
13960;DHT22;7052;51.050;3.716;2024-01-06T00:41:29;7.20;99.90
13960;DHT22;7052;51.050;3.716;2024-01-06T00:43:56;7.20;99.90
13960;DHT22;7052;51.050;3.716;2024-01-06T00:46:25;7.20;99.90
13960;DHT22;7052;51.050;3.716;2024-01-06T00:48:52;7.20;99.90
13960;DHT22;7052;51.050;3.716;2024-01-06T00:51:19;7.30;99.90
13960;DHT22;7052;51.050;3.716;2024-01-06T00:53:48;7.30;99.90
13960;DHT22;7052;51.050;3.716;2024-01-06T00:56:17;7.20;99.90
13960;DHT22;7052;51.050;3.716;2024-01-06T00:58:45;7.20;99.90
13960;DHT22;7052;51.050;3.716;2024-01-06T01:01:12;7.20;99.90
13960;DHT22;7052;51.050;3.716;2024-01-06T01:03:44;7.30;99.90
13960;DHT22;7052;51.050;3.716;2024-01-06T01:06:13;7.30;99.90
13960;DHT22;7052;51.050;3.716;2024-01-06T01:08:41;7.30;99.90
13960;DHT22;7052;51.050;3.716;2024-01-06T01:11:08;7.30;99.90
13960;DHT22;7052;51.050;3.716;2024-01-06T01:13:35;7.30;99.90
13960;DHT22;7052;51.050;3.716;2024-01-06T01:16:07;7.20;99.90
13960;DHT22;7052;51.050;3.716;2024-01-06T01:18:34;7.10;99.90
13960;DHT22;7052;51.050;3.716;2024-01-06T01:21:03;7.20;99.90
13960;DHT22;7052;51.050;3.716;2024-01-06T01:23:33;7.20;99.90
13960;DHT22;7052;51.050;3.716;2024-01-06T01:26:02;7.20;99.90
13960;DHT22;7052;51.050;3.716;2024-01-06T01:28:29;7.20;99.90
13960;DHT22;7052;51.050;3.716;2024-01-06T01:30:56;7.10;99.90
13960;DHT22;7052;51.050;3.716;2024-01-06T01:33:24;7.10;99.90
13960;DHT22;7052;51.050;3.716;2024-01-06T01:35:52;7.10;99.90
13960;DHT22;7052;51.050;3.716;2024-01-06T01:38:20;7.10;99.90
13960;DHT22;7052;51.050;3.716;2024-01-06T01:40:49;7.10;99.90
13960;DHT22;7052;51.050;3.716;2024-01-06T01:43:19;7.10;99.90
13960;DHT22;7052;51.050;3.716;2024-01-06T01:45:53;7.10;99.90
13960;DHT22;7052;51.050;3.716;2024-01-06T01:48:22;7.10;99.90
13960;DHT22;7052;51.050;3.716;2024-01-06T01:50:51;7.20;99.90
13960;DHT22;7052;51.050;3.716;2024-01-06T01:53:21;7.20;99.90
13960;DHT22;7052;51.050;3.716;2024-01-06T01:55:52;7.20;99.90
13960;DHT22;7052;51.050;3.716;2024-01-06T01:58:19;7.10;99.90
13960;DHT22;7052;51.050;3.716;2024-01-06T02:00:46;7.20;99.90
13960;DHT22;7052;51.050;3.716;2024-01-06T02:03:15;7.20;99.90
13960;DHT22;7052;51.050;3.716;2024-01-06T02:05:42;7.20;99.90
13960;DHT22;7052;51.050;3.716;2024-01-06T02:08:12;7.20;99.90
13960;DHT22;7052;51.050;3.716;2024-01-06T02:10:45;7.20;99.90
13960;DHT22;7052;51.050;3.716;2024-01-06T02:13:13;7.10;99.90
13960;DHT22;7052;51.050;3.716;2024-01-06T02:15:41;7.10;99.90
13960;DHT22;7052;51.050;3.716;2024-01-06T02:18:08;7.10;99.90
13960;DHT22;7052;51.050;3.716;2024-01-06T02:20:36;7.20;99.90
13960;DHT22;7052;51.050;3.716;2024-01-06T02:23:07;7.10;99.90
13960;DHT22;7052;51.050;3.716;2024-01-06T02:25:35;7.10;99.90
13960;DHT22;7052;51.050;3.716;2024-01-06T02:28:02;7.10;99.90
13960;DHT22;7052;51.050;3.716;2024-01-06T02:30:31;7.10;99.90
13960;DHT22;7052;51.050;3.716;2024-01-06T02:32:58;7.10;99.90
13960;DHT22;7052;51.050;3.716;2024-01-06T02:35:24;7.10;99.90
13960;DHT22;7052;51.050;3.716;2024-01-06T02:37:51;7.10;99.90
13960;DHT22;7052;51.050;3.716;2024-01-06T02:40:21;7.10;99.90
13960;DHT22;7052;51.050;3.716;2024-01-06T02:42:48;7.10;99.90
13960;DHT22;7052;51.050;3.716;2024-01-06T02:45:16;7.10;99.90
13960;DHT22;7052;51.050;3.716;2024-01-06T02:47:43;7.10;99.90
13960;DHT22;7052;51.050;3.716;2024-01-06T02:50:10;7.00;99.90
13960;DHT22;7052;51.050;3.716;2024-01-06T02:52:37;7.10;99.90
13960;DHT22;7052;51.050;3.716;2024-01-06T02:55:04;7.10;99.90
13960;DHT22;7052;51.050;3.716;2024-01-06T02:57:33;7.10;99.90
13960;DHT22;7052;51.050;3.716;2024-01-06T03:00:02;7.10;99.90
13960;DHT22;7052;51.050;3.716;2024-01-06T03:02:30;7.10;99.90
13960;DHT22;7052;51.050;3.716;2024-01-06T03:04:58;7.10;99.90
13960;DHT22;7052;51.050;3.716;2024-01-06T03:07:25;7.10;99.90
13960;DHT22;7052;51.050;3.716;2024-01-06T03:09:52;7.10;99.90
13960;DHT22;7052;51.050;3.716;2024-01-06T03:12:28;7.10;99.90
13960;DHT22;7052;51.050;3.716;2024-01-06T03:14:57;7.10;99.90
13960;DHT22;7052;51.050;3.716;2024-01-06T03:17:24;7.10;99.90
13960;DHT22;7052;51.050;3.716;2024-01-06T03:19:52;7.10;99.90
13960;DHT22;7052;51.050;3.716;2024-01-06T03:22:19;7.10;99.90
13960;DHT22;7052;51.050;3.716;2024-01-06T03:24:46;7.10;99.90
13960;DHT22;7052;51.050;3.716;2024-01-06T03:27:15;7.20;99.90
13960;DHT22;7052;51.050;3.716;2024-01-06T03:29:43;7.20;99.90
13960;DHT22;7052;51.050;3.716;2024-01-06T03:32:13;7.10;99.90
13960;DHT22;7052;51.050;3.716;2024-01-06T03:34:40;7.10;99.90
13960;DHT22;7052;51.050;3.716;2024-01-06T03:37:08;7.10;99.90
13960;DHT22;7052;51.050;3.716;2024-01-06T03:39:37;7.10;99.90
13960;DHT22;7052;51.050;3.716;2024-01-06T03:42:04;7.10;99.90
13960;DHT22;7052;51.050;3.716;2024-01-06T03:44:33;7.10;99.90
13960;DHT22;7052;51.050;3.716;2024-01-06T03:47:00;7.00;99.90
13960;DHT22;7052;51.050;3.716;2024-01-06T03:49:28;7.10;99.90
13960;DHT22;7052;51.050;3.716;2024-01-06T03:51:56;7.10;99.90
13960;DHT22;7052;51.050;3.716;2024-01-06T03:54:23;7.10;99.90
13960;DHT22;7052;51.050;3.716;2024-01-06T03:56:50;7.00;99.90
13960;DHT22;7052;51.050;3.716;2024-01-06T03:59:17;7.10;99.90
13960;DHT22;7052;51.050;3.716;2024-01-06T04:01:45;7.00;99.90
13960;DHT22;7052;51.050;3.716;2024-01-06T04:04:12;7.00;99.90
13960;DHT22;7052;51.050;3.716;2024-01-06T04:06:40;7.00;99.90
13960;DHT22;7052;51.050;3.716;2024-01-06T04:09:08;7.00;99.90
13960;DHT22;7052;51.050;3.716;2024-01-06T04:11:35;7.10;99.90
13960;DHT22;7052;51.050;3.716;2024-01-06T04:14:02;7.00;99.90
13960;DHT22;7052;51.050;3.716;2024-01-06T04:16:29;7.00;99.90
13960;DHT22;7052;51.050;3.716;2024-01-06T04:18:57;7.00;99.90
13960;DHT22;7052;51.050;3.716;2024-01-06T04:21:24;7.00;99.90
13960;DHT22;7052;51.050;3.716;2024-01-06T04:23:53;7.10;99.90
13960;DHT22;7052;51.050;3.716;2024-01-06T04:26:22;7.00;99.90
13960;DHT22;7052;51.050;3.716;2024-01-06T04:28:51;7.00;99.90
13960;DHT22;7052;51.050;3.716;2024-01-06T04:31:19;7.00;99.90
13960;DHT22;7052;51.050;3.716;2024-01-06T04:33:46;7.00;99.90
13960;DHT22;7052;51.050;3.716;2024-01-06T04:36:16;7.00;99.90
13960;DHT22;7052;51.050;3.716;2024-01-06T04:38:43;7.00;99.90
13960;DHT22;7052;51.050;3.716;2024-01-06T04:41:11;7.00;99.90
13960;DHT22;7052;51.050;3.716;2024-01-06T04:43:38;7.00;99.90
13960;DHT22;7052;51.050;3.716;2024-01-06T04:46:05;7.00;99.90
13960;DHT22;7052;51.050;3.716;2024-01-06T04:48:32;7.00;99.90
13960;DHT22;7052;51.050;3.716;2024-01-06T04:51:00;7.00;99.90
13960;DHT22;7052;51.050;3.716;2024-01-06T04:53:29;7.00;99.90
13960;DHT22;7052;51.050;3.716;2024-01-06T04:55:55;7.00;99.90
13960;DHT22;7052;51.050;3.716;2024-01-06T04:58:28;7.00;99.90
13960;DHT22;7052;51.050;3.716;2024-01-06T05:00:55;7.00;99.90
13960;DHT22;7052;51.050;3.716;2024-01-06T05:03:22;6.90;99.90
13960;DHT22;7052;51.050;3.716;2024-01-06T05:05:49;6.90;99.90
13960;DHT22;7052;51.050;3.716;2024-01-06T05:08:16;6.90;99.90
13960;DHT22;7052;51.050;3.716;2024-01-06T05:10:44;6.90;99.90
13960;DHT22;7052;51.050;3.716;2024-01-06T05:13:12;6.90;99.90
13960;DHT22;7052;51.050;3.716;2024-01-06T05:15:42;6.90;99.90
13960;DHT22;7052;51.050;3.716;2024-01-06T05:18:09;6.90;99.90
13960;DHT22;7052;51.050;3.716;2024-01-06T05:20:38;6.90;99.90
13960;DHT22;7052;51.050;3.716;2024-01-06T05:23:06;6.90;99.90
13960;DHT22;7052;51.050;3.716;2024-01-06T05:25:33;6.90;99.90
13960;DHT22;7052;51.050;3.716;2024-01-06T05:28:00;6.90;99.90
13960;DHT22;7052;51.050;3.716;2024-01-06T05:30:27;6.90;99.90
13960;DHT22;7052;51.050;3.716;2024-01-06T05:32:57;6.90;99.90
13960;DHT22;7052;51.050;3.716;2024-01-06T05:35:24;6.90;99.90
13960;DHT22;7052;51.050;3.716;2024-01-06T05:37:52;6.90;99.90
13960;DHT22;7052;51.050;3.716;2024-01-06T05:40:20;6.80;99.90
13960;DHT22;7052;51.050;3.716;2024-01-06T05:42:47;6.80;99.90
13960;DHT22;7052;51.050;3.716;2024-01-06T05:45:14;6.80;99.90
13960;DHT22;7052;51.050;3.716;2024-01-06T05:47:41;6.80;99.90
13960;DHT22;7052;51.050;3.716;2024-01-06T05:50:11;6.80;99.90
13960;DHT22;7052;51.050;3.716;2024-01-06T05:52:39;6.80;99.90
13960;DHT22;7052;51.050;3.716;2024-01-06T05:55:07;6.80;99.90
13960;DHT22;7052;51.050;3.716;2024-01-06T05:57:34;6.80;99.90
13960;DHT22;7052;51.050;3.716;2024-01-06T06:00:02;6.80;99.90
13960;DHT22;7052;51.050;3.716;2024-01-06T06:02:29;6.80;99.90
13960;DHT22;7052;51.050;3.716;2024-01-06T06:04:57;6.80;99.90
13960;DHT22;7052;51.050;3.716;2024-01-06T06:07:25;6.80;99.90
13960;DHT22;7052;51.050;3.716;2024-01-06T06:09:53;6.80;99.90
13960;DHT22;7052;51.050;3.716;2024-01-06T06:12:22;6.80;99.90
13960;DHT22;7052;51.050;3.716;2024-01-06T06:14:49;6.80;99.90
13960;DHT22;7052;51.050;3.716;2024-01-06T06:17:17;6.80;99.90
13960;DHT22;7052;51.050;3.716;2024-01-06T06:19:44;6.80;99.90
13960;DHT22;7052;51.050;3.716;2024-01-06T06:22:11;6.80;99.90
13960;DHT22;7052;51.050;3.716;2024-01-06T06:24:41;6.90;99.90
13960;DHT22;7052;51.050;3.716;2024-01-06T06:27:08;6.80;99.90
13960;DHT22;7052;51.050;3.716;2024-01-06T06:29:35;6.80;99.90
13960;DHT22;7052;51.050;3.716;2024-01-06T06:32:03;6.80;99.90
13960;DHT22;7052;51.050;3.716;2024-01-06T06:34:30;6.80;99.90
13960;DHT22;7052;51.050;3.716;2024-01-06T06:36:57;6.80;99.90
13960;DHT22;7052;51.050;3.716;2024-01-06T06:39:24;6.80;99.90
13960;DHT22;7052;51.050;3.716;2024-01-06T06:41:54;6.80;99.90
13960;DHT22;7052;51.050;3.716;2024-01-06T06:44:20;6.80;99.90
13960;DHT22;7052;51.050;3.716;2024-01-06T06:46:50;6.80;99.90
13960;DHT22;7052;51.050;3.716;2024-01-06T06:49:19;6.80;99.90
13960;DHT22;7052;51.050;3.716;2024-01-06T06:51:46;6.80;99.90
13960;DHT22;7052;51.050;3.716;2024-01-06T06:54:14;6.80;99.90
13960;DHT22;7052;51.050;3.716;2024-01-06T06:56:41;6.70;99.90
13960;DHT22;7052;51.050;3.716;2024-01-06T06:59:12;6.70;99.90
13960;DHT22;7052;51.050;3.716;2024-01-06T07:01:40;6.70;99.90
13960;DHT22;7052;51.050;3.716;2024-01-06T07:04:07;6.70;99.90
13960;DHT22;7052;51.050;3.716;2024-01-06T07:06:35;6.70;99.90
13960;DHT22;7052;51.050;3.716;2024-01-06T07:09:02;6.70;99.90
13960;DHT22;7052;51.050;3.716;2024-01-06T07:11:33;6.70;99.90
13960;DHT22;7052;51.050;3.716;2024-01-06T07:14:01;6.70;99.90
13960;DHT22;7052;51.050;3.716;2024-01-06T07:16:29;6.70;99.90
13960;DHT22;7052;51.050;3.716;2024-01-06T07:18:57;6.70;99.90
13960;DHT22;7052;51.050;3.716;2024-01-06T07:21:24;6.70;99.90
13960;DHT22;7052;51.050;3.716;2024-01-06T07:23:53;6.70;99.90
13960;DHT22;7052;51.050;3.716;2024-01-06T07:26:20;6.70;99.90
13960;DHT22;7052;51.050;3.716;2024-01-06T07:28:47;6.70;99.90
13960;DHT22;7052;51.050;3.716;2024-01-06T07:31:14;6.70;99.90
13960;DHT22;7052;51.050;3.716;2024-01-06T07:33:44;6.70;99.90
13960;DHT22;7052;51.050;3.716;2024-01-06T07:36:11;6.70;99.90
13960;DHT22;7052;51.050;3.716;2024-01-06T07:38:39;6.60;99.90
13960;DHT22;7052;51.050;3.716;2024-01-06T07:41:09;6.60;99.90
13960;DHT22;7052;51.050;3.716;2024-01-06T07:43:42;6.60;99.90
13960;DHT22;7052;51.050;3.716;2024-01-06T07:46:09;6.60;99.90
13960;DHT22;7052;51.050;3.716;2024-01-06T07:48:36;6.60;99.90
13960;DHT22;7052;51.050;3.716;2024-01-06T07:51:05;6.60;99.90
13960;DHT22;7052;51.050;3.716;2024-01-06T07:53:32;6.60;99.90
13960;DHT22;7052;51.050;3.716;2024-01-06T07:56:01;6.50;99.90
13960;DHT22;7052;51.050;3.716;2024-01-06T07:58:29;6.50;99.90
13960;DHT22;7052;51.050;3.716;2024-01-06T08:00:56;6.50;99.90
13960;DHT22;7052;51.050;3.716;2024-01-06T08:03:24;6.60;99.90
13960;DHT22;7052;51.050;3.716;2024-01-06T08:05:51;6.50;99.90
13960;DHT22;7052;51.050;3.716;2024-01-06T08:08:20;6.50;99.90
13960;DHT22;7052;51.050;3.716;2024-01-06T08:10:47;6.50;99.90
13960;DHT22;7052;51.050;3.716;2024-01-06T08:13:14;6.50;99.90
13960;DHT22;7052;51.050;3.716;2024-01-06T08:15:41;6.40;99.90
13960;DHT22;7052;51.050;3.716;2024-01-06T08:18:11;6.40;99.90
13960;DHT22;7052;51.050;3.716;2024-01-06T08:20:39;6.50;99.90
13960;DHT22;7052;51.050;3.716;2024-01-06T08:23:06;6.50;99.90
13960;DHT22;7052;51.050;3.716;2024-01-06T08:25:34;6.40;99.90
13960;DHT22;7052;51.050;3.716;2024-01-06T08:28:03;6.40;99.90
13960;DHT22;7052;51.050;3.716;2024-01-06T08:30:33;6.40;99.90
13960;DHT22;7052;51.050;3.716;2024-01-06T08:33:00;6.40;99.90
13960;DHT22;7052;51.050;3.716;2024-01-06T08:35:27;6.40;99.90
13960;DHT22;7052;51.050;3.716;2024-01-06T08:37:56;6.40;99.90
13960;DHT22;7052;51.050;3.716;2024-01-06T08:40:23;6.40;99.90
13960;DHT22;7052;51.050;3.716;2024-01-06T08:42:51;6.50;99.90
13960;DHT22;7052;51.050;3.716;2024-01-06T08:45:18;6.40;99.90
13960;DHT22;7052;51.050;3.716;2024-01-06T08:47:45;6.50;99.90
13960;DHT22;7052;51.050;3.716;2024-01-06T08:50:12;6.40;99.90
13960;DHT22;7052;51.050;3.716;2024-01-06T08:52:40;6.40;99.90
13960;DHT22;7052;51.050;3.716;2024-01-06T08:55:09;6.40;99.90
13960;DHT22;7052;51.050;3.716;2024-01-06T08:57:39;6.40;99.90
13960;DHT22;7052;51.050;3.716;2024-01-06T09:00:14;6.40;99.90
13960;DHT22;7052;51.050;3.716;2024-01-06T09:02:42;6.40;99.90
13960;DHT22;7052;51.050;3.716;2024-01-06T09:05:09;6.40;99.90
13960;DHT22;7052;51.050;3.716;2024-01-06T09:07:37;6.40;99.90
13960;DHT22;7052;51.050;3.716;2024-01-06T09:10:05;6.40;99.90
13960;DHT22;7052;51.050;3.716;2024-01-06T09:12:35;6.30;99.90
13960;DHT22;7052;51.050;3.716;2024-01-06T09:15:03;6.30;99.90
13960;DHT22;7052;51.050;3.716;2024-01-06T09:17:32;6.30;99.90
13960;DHT22;7052;51.050;3.716;2024-01-06T09:20:00;6.30;99.90
13960;DHT22;7052;51.050;3.716;2024-01-06T09:22:27;6.30;99.90
13960;DHT22;7052;51.050;3.716;2024-01-06T09:24:57;6.30;99.90
13960;DHT22;7052;51.050;3.716;2024-01-06T09:27:25;6.30;99.90
13960;DHT22;7052;51.050;3.716;2024-01-06T09:29:52;6.30;99.90
13960;DHT22;7052;51.050;3.716;2024-01-06T09:32:20;6.30;99.90
13960;DHT22;7052;51.050;3.716;2024-01-06T09:34:51;6.30;99.90
13960;DHT22;7052;51.050;3.716;2024-01-06T09:37:18;6.30;99.90
13960;DHT22;7052;51.050;3.716;2024-01-06T09:39:45;6.30;99.90
13960;DHT22;7052;51.050;3.716;2024-01-06T09:42:14;6.30;99.90
13960;DHT22;7052;51.050;3.716;2024-01-06T09:44:42;6.40;99.90
13960;DHT22;7052;51.050;3.716;2024-01-06T09:47:12;6.40;99.90
13960;DHT22;7052;51.050;3.716;2024-01-06T09:49:39;6.40;99.90
13960;DHT22;7052;51.050;3.716;2024-01-06T09:52:14;6.40;99.90
13960;DHT22;7052;51.050;3.716;2024-01-06T09:54:48;6.30;99.90
13960;DHT22;7052;51.050;3.716;2024-01-06T09:57:16;6.40;99.90
13960;DHT22;7052;51.050;3.716;2024-01-06T09:59:44;6.30;99.90
13960;DHT22;7052;51.050;3.716;2024-01-06T10:02:15;6.30;99.90
13960;DHT22;7052;51.050;3.716;2024-01-06T10:04:44;6.30;99.90
13960;DHT22;7052;51.050;3.716;2024-01-06T10:07:14;6.30;99.90
13960;DHT22;7052;51.050;3.716;2024-01-06T10:09:43;6.30;99.90
13960;DHT22;7052;51.050;3.716;2024-01-06T10:12:10;6.30;99.90
13960;DHT22;7052;51.050;3.716;2024-01-06T10:14:37;6.30;99.90
13960;DHT22;7052;51.050;3.716;2024-01-06T10:17:09;6.30;99.90
13960;DHT22;7052;51.050;3.716;2024-01-06T10:19:37;6.30;99.90
13960;DHT22;7052;51.050;3.716;2024-01-06T10:22:04;6.30;99.90
13960;DHT22;7052;51.050;3.716;2024-01-06T10:24:37;6.30;99.90
13960;DHT22;7052;51.050;3.716;2024-01-06T10:27:04;6.20;99.90
13960;DHT22;7052;51.050;3.716;2024-01-06T10:29:32;6.20;99.90
13960;DHT22;7052;51.050;3.716;2024-01-06T10:31:59;6.20;99.90
13960;DHT22;7052;51.050;3.716;2024-01-06T10:34:28;6.30;99.90
13960;DHT22;7052;51.050;3.716;2024-01-06T10:36:57;6.20;99.90
13960;DHT22;7052;51.050;3.716;2024-01-06T10:39:25;6.20;99.90
13960;DHT22;7052;51.050;3.716;2024-01-06T10:41:57;6.30;99.90
13960;DHT22;7052;51.050;3.716;2024-01-06T10:44:25;6.30;99.90
13960;DHT22;7052;51.050;3.716;2024-01-06T10:46:54;6.30;99.90
13960;DHT22;7052;51.050;3.716;2024-01-06T10:49:24;6.20;99.90
13960;DHT22;7052;51.050;3.716;2024-01-06T10:51:53;6.30;99.90
13960;DHT22;7052;51.050;3.716;2024-01-06T10:54:21;6.30;99.90
13960;DHT22;7052;51.050;3.716;2024-01-06T10:56:51;6.40;99.90
13960;DHT22;7052;51.050;3.716;2024-01-06T10:59:22;6.40;99.90
13960;DHT22;7052;51.050;3.716;2024-01-06T11:01:53;6.40;99.90
13960;DHT22;7052;51.050;3.716;2024-01-06T11:04:23;6.40;99.90
13960;DHT22;7052;51.050;3.716;2024-01-06T11:06:50;6.40;99.90
13960;DHT22;7052;51.050;3.716;2024-01-06T11:09:22;6.40;99.90
13960;DHT22;7052;51.050;3.716;2024-01-06T11:11:52;6.40;99.90
13960;DHT22;7052;51.050;3.716;2024-01-06T11:14:24;6.40;99.90
13960;DHT22;7052;51.050;3.716;2024-01-06T11:16:55;6.40;99.90
13960;DHT22;7052;51.050;3.716;2024-01-06T11:19:44;6.40;99.90
13960;DHT22;7052;51.050;3.716;2024-01-06T11:22:25;6.50;99.90
13960;DHT22;7052;51.050;3.716;2024-01-06T11:24:54;6.40;99.90
13960;DHT22;7052;51.050;3.716;2024-01-06T11:27:26;6.40;99.90
13960;DHT22;7052;51.050;3.716;2024-01-06T11:29:58;6.40;99.90
13960;DHT22;7052;51.050;3.716;2024-01-06T11:32:28;6.40;99.90
13960;DHT22;7052;51.050;3.716;2024-01-06T11:34:56;6.50;99.90
13960;DHT22;7052;51.050;3.716;2024-01-06T11:37:25;6.60;99.90
13960;DHT22;7052;51.050;3.716;2024-01-06T11:39:52;6.60;99.90
13960;DHT22;7052;51.050;3.716;2024-01-06T11:42:20;6.70;99.90
13960;DHT22;7052;51.050;3.716;2024-01-06T11:44:51;6.70;99.90
13960;DHT22;7052;51.050;3.716;2024-01-06T11:47:36;6.60;99.90
13960;DHT22;7052;51.050;3.716;2024-01-06T11:50:04;6.60;99.90
13960;DHT22;7052;51.050;3.716;2024-01-06T11:52:32;6.60;99.90
13960;DHT22;7052;51.050;3.716;2024-01-06T11:55:01;6.60;99.90
13960;DHT22;7052;51.050;3.716;2024-01-06T11:57:29;6.60;99.90
13960;DHT22;7052;51.050;3.716;2024-01-06T11:59:56;6.60;99.90
13960;DHT22;7052;51.050;3.716;2024-01-06T12:02:29;6.60;99.90
13960;DHT22;7052;51.050;3.716;2024-01-06T12:05:12;6.60;99.90
13960;DHT22;7052;51.050;3.716;2024-01-06T12:07:40;6.60;99.90
13960;DHT22;7052;51.050;3.716;2024-01-06T12:10:10;6.60;99.90
13960;DHT22;7052;51.050;3.716;2024-01-06T12:12:40;6.60;99.90
13960;DHT22;7052;51.050;3.716;2024-01-06T12:15:08;6.60;99.90
13960;DHT22;7052;51.050;3.716;2024-01-06T12:17:39;6.60;99.90
13960;DHT22;7052;51.050;3.716;2024-01-06T12:20:08;6.60;99.90
13960;DHT22;7052;51.050;3.716;2024-01-06T12:22:37;6.60;99.90
13960;DHT22;7052;51.050;3.716;2024-01-06T12:25:08;6.60;99.90
13960;DHT22;7052;51.050;3.716;2024-01-06T12:27:36;6.60;99.90
13960;DHT22;7052;51.050;3.716;2024-01-06T12:30:05;6.60;99.90
13960;DHT22;7052;51.050;3.716;2024-01-06T12:32:33;6.60;99.90
13960;DHT22;7052;51.050;3.716;2024-01-06T12:35:01;6.60;99.90
13960;DHT22;7052;51.050;3.716;2024-01-06T12:37:28;6.60;99.90
13960;DHT22;7052;51.050;3.716;2024-01-06T12:39:57;6.60;99.90
13960;DHT22;7052;51.050;3.716;2024-01-06T12:42:24;6.60;99.90
13960;DHT22;7052;51.050;3.716;2024-01-06T12:44:51;6.60;99.90
13960;DHT22;7052;51.050;3.716;2024-01-06T12:47:20;6.60;99.90
13960;DHT22;7052;51.050;3.716;2024-01-06T12:49:49;6.60;99.90
13960;DHT22;7052;51.050;3.716;2024-01-06T12:52:16;6.60;99.90
13960;DHT22;7052;51.050;3.716;2024-01-06T12:54:44;6.60;99.90
13960;DHT22;7052;51.050;3.716;2024-01-06T12:57:13;6.60;99.90
13960;DHT22;7052;51.050;3.716;2024-01-06T12:59:40;6.60;99.90
13960;DHT22;7052;51.050;3.716;2024-01-06T13:02:08;6.60;99.90
13960;DHT22;7052;51.050;3.716;2024-01-06T13:04:35;6.70;99.90
13960;DHT22;7052;51.050;3.716;2024-01-06T13:07:04;6.70;99.90
13960;DHT22;7052;51.050;3.716;2024-01-06T13:09:32;6.80;99.90
13960;DHT22;7052;51.050;3.716;2024-01-06T13:12:02;6.80;99.90
13960;DHT22;7052;51.050;3.716;2024-01-06T13:14:30;6.80;99.90
13960;DHT22;7052;51.050;3.716;2024-01-06T13:16:57;6.90;99.90
13960;DHT22;7052;51.050;3.716;2024-01-06T13:19:25;6.90;99.90
13960;DHT22;7052;51.050;3.716;2024-01-06T13:21:54;6.90;99.90
13960;DHT22;7052;51.050;3.716;2024-01-06T13:24:23;6.90;99.90
13960;DHT22;7052;51.050;3.716;2024-01-06T13:26:51;6.90;99.90
13960;DHT22;7052;51.050;3.716;2024-01-06T13:29:18;6.80;99.90
13960;DHT22;7052;51.050;3.716;2024-01-06T13:31:47;6.90;99.90
13960;DHT22;7052;51.050;3.716;2024-01-06T13:34:14;6.90;99.90
13960;DHT22;7052;51.050;3.716;2024-01-06T13:36:41;6.80;99.90
13960;DHT22;7052;51.050;3.716;2024-01-06T13:39:10;6.80;99.90
13960;DHT22;7052;51.050;3.716;2024-01-06T13:41:43;6.80;99.90
13960;DHT22;7052;51.050;3.716;2024-01-06T13:44:10;6.80;99.90
13960;DHT22;7052;51.050;3.716;2024-01-06T13:46:39;6.80;99.90
13960;DHT22;7052;51.050;3.716;2024-01-06T13:49:18;6.80;99.90
13960;DHT22;7052;51.050;3.716;2024-01-06T13:51:45;6.90;99.90
13960;DHT22;7052;51.050;3.716;2024-01-06T13:54:13;7.00;99.90
13960;DHT22;7052;51.050;3.716;2024-01-06T13:56:41;7.00;99.90
13960;DHT22;7052;51.050;3.716;2024-01-06T13:59:08;7.00;99.90
13960;DHT22;7052;51.050;3.716;2024-01-06T14:01:35;7.00;99.90
13960;DHT22;7052;51.050;3.716;2024-01-06T14:04:08;6.90;99.90
13960;DHT22;7052;51.050;3.716;2024-01-06T14:06:36;6.90;99.90
13960;DHT22;7052;51.050;3.716;2024-01-06T14:09:05;6.90;99.90
13960;DHT22;7052;51.050;3.716;2024-01-06T14:11:32;6.80;99.90
13960;DHT22;7052;51.050;3.716;2024-01-06T14:14:02;6.80;99.90
13960;DHT22;7052;51.050;3.716;2024-01-06T14:16:33;6.70;99.90
13960;DHT22;7052;51.050;3.716;2024-01-06T14:19:02;6.70;99.90
13960;DHT22;7052;51.050;3.716;2024-01-06T14:21:45;6.70;99.90
13960;DHT22;7052;51.050;3.716;2024-01-06T14:24:20;6.70;99.90
13960;DHT22;7052;51.050;3.716;2024-01-06T14:26:49;6.70;99.90
13960;DHT22;7052;51.050;3.716;2024-01-06T14:29:16;6.70;99.90
13960;DHT22;7052;51.050;3.716;2024-01-06T14:31:49;6.70;99.90
13960;DHT22;7052;51.050;3.716;2024-01-06T14:34:16;6.70;99.90
13960;DHT22;7052;51.050;3.716;2024-01-06T14:36:45;6.70;99.90
13960;DHT22;7052;51.050;3.716;2024-01-06T14:39:14;6.60;99.90
13960;DHT22;7052;51.050;3.716;2024-01-06T14:41:42;6.60;99.90
13960;DHT22;7052;51.050;3.716;2024-01-06T14:44:09;6.40;99.90
13960;DHT22;7052;51.050;3.716;2024-01-06T14:47:00;6.60;99.90
13960;DHT22;7052;51.050;3.716;2024-01-06T14:49:30;6.50;99.90
13960;DHT22;7052;51.050;3.716;2024-01-06T14:52:03;6.50;99.90
13960;DHT22;7052;51.050;3.716;2024-01-06T14:54:30;6.50;99.90
13960;DHT22;7052;51.050;3.716;2024-01-06T14:57:00;6.50;99.90
13960;DHT22;7052;51.050;3.716;2024-01-06T14:59:27;6.50;99.90
13960;DHT22;7052;51.050;3.716;2024-01-06T15:01:54;6.50;99.90
13960;DHT22;7052;51.050;3.716;2024-01-06T15:04:22;6.50;99.90
13960;DHT22;7052;51.050;3.716;2024-01-06T15:06:49;6.50;99.90
13960;DHT22;7052;51.050;3.716;2024-01-06T15:09:19;6.40;99.90
13960;DHT22;7052;51.050;3.716;2024-01-06T15:11:47;6.40;99.90
13960;DHT22;7052;51.050;3.716;2024-01-06T15:14:15;6.40;99.90
13960;DHT22;7052;51.050;3.716;2024-01-06T15:16:45;6.40;99.90
13960;DHT22;7052;51.050;3.716;2024-01-06T15:19:12;6.40;99.90
13960;DHT22;7052;51.050;3.716;2024-01-06T15:21:41;6.40;99.90
13960;DHT22;7052;51.050;3.716;2024-01-06T15:24:09;6.40;99.90
13960;DHT22;7052;51.050;3.716;2024-01-06T15:26:46;6.40;99.90
13960;DHT22;7052;51.050;3.716;2024-01-06T15:29:14;6.40;99.90
13960;DHT22;7052;51.050;3.716;2024-01-06T15:31:44;6.30;99.90
13960;DHT22;7052;51.050;3.716;2024-01-06T15:34:14;6.30;99.90
13960;DHT22;7052;51.050;3.716;2024-01-06T15:36:43;6.30;99.90
13960;DHT22;7052;51.050;3.716;2024-01-06T15:39:10;6.20;99.90
13960;DHT22;7052;51.050;3.716;2024-01-06T15:41:40;6.20;99.90
13960;DHT22;7052;51.050;3.716;2024-01-06T15:44:09;6.20;99.90
13960;DHT22;7052;51.050;3.716;2024-01-06T15:46:36;6.10;99.90
13960;DHT22;7052;51.050;3.716;2024-01-06T15:49:03;6.10;99.90
13960;DHT22;7052;51.050;3.716;2024-01-06T15:51:32;6.10;99.90
13960;DHT22;7052;51.050;3.716;2024-01-06T15:54:00;6.10;99.90
13960;DHT22;7052;51.050;3.716;2024-01-06T15:56:30;6.10;99.90
13960;DHT22;7052;51.050;3.716;2024-01-06T15:58:59;6.00;99.90
13960;DHT22;7052;51.050;3.716;2024-01-06T16:01:28;6.10;99.90
13960;DHT22;7052;51.050;3.716;2024-01-06T16:03:57;6.00;99.90
13960;DHT22;7052;51.050;3.716;2024-01-06T16:06:25;6.00;99.90
13960;DHT22;7052;51.050;3.716;2024-01-06T16:08:52;6.00;99.90
13960;DHT22;7052;51.050;3.716;2024-01-06T16:11:20;6.00;99.90